sensor_id;sensor_type;location;lat;lon;timestamp;temperature;humidity
17774;DHT22;9011;33.236;-97.118;2022-11-25T00:01:30;12.30;99.90
17774;DHT22;9011;33.236;-97.118;2022-11-25T00:03:59;12.30;99.90
17774;DHT22;9011;33.236;-97.118;2022-11-25T00:06:29;12.30;99.90
17774;DHT22;9011;33.236;-97.118;2022-11-25T00:08:58;12.30;99.90
17774;DHT22;9011;33.236;-97.118;2022-11-25T00:11:29;12.30;99.90
17774;DHT22;9011;33.236;-97.118;2022-11-25T00:13:58;12.30;99.90
17774;DHT22;9011;33.236;-97.118;2022-11-25T00:16:27;12.30;99.90
17774;DHT22;9011;33.236;-97.118;2022-11-25T00:18:56;12.30;99.90
17774;DHT22;9011;33.236;-97.118;2022-11-25T00:21:30;12.30;99.90
17774;DHT22;9011;33.236;-97.118;2022-11-25T00:24:00;12.20;99.90
17774;DHT22;9011;33.236;-97.118;2022-11-25T00:26:32;12.30;99.90
17774;DHT22;9011;33.236;-97.118;2022-11-25T00:29:03;12.30;99.90
17774;DHT22;9011;33.236;-97.118;2022-11-25T00:31:34;12.30;99.90
17774;DHT22;9011;33.236;-97.118;2022-11-25T00:34:03;12.30;99.90
17774;DHT22;9011;33.236;-97.118;2022-11-25T00:36:34;12.20;99.90
17774;DHT22;9011;33.236;-97.118;2022-11-25T00:39:04;12.30;99.90
17774;DHT22;9011;33.236;-97.118;2022-11-25T00:41:35;12.30;99.90
17774;DHT22;9011;33.236;-97.118;2022-11-25T00:44:20;12.30;99.90
17774;DHT22;9011;33.236;-97.118;2022-11-25T00:47:07;12.30;99.90
17774;DHT22;9011;33.236;-97.118;2022-11-25T00:49:37;12.30;99.90
17774;DHT22;9011;33.236;-97.118;2022-11-25T00:52:06;12.30;99.90
17774;DHT22;9011;33.236;-97.118;2022-11-25T00:54:35;12.30;99.90
17774;DHT22;9011;33.236;-97.118;2022-11-25T00:57:05;12.30;99.90
17774;DHT22;9011;33.236;-97.118;2022-11-25T00:59:34;12.30;99.90
17774;DHT22;9011;33.236;-97.118;2022-11-25T01:02:02;12.30;99.90
17774;DHT22;9011;33.236;-97.118;2022-11-25T01:04:31;12.30;99.90
17774;DHT22;9011;33.236;-97.118;2022-11-25T01:07:00;12.30;99.90
17774;DHT22;9011;33.236;-97.118;2022-11-25T01:09:28;12.30;99.90
17774;DHT22;9011;33.236;-97.118;2022-11-25T01:11:57;12.30;99.90
17774;DHT22;9011;33.236;-97.118;2022-11-25T01:14:27;12.40;99.90
17774;DHT22;9011;33.236;-97.118;2022-11-25T01:16:56;12.30;99.90
17774;DHT22;9011;33.236;-97.118;2022-11-25T01:19:24;12.30;99.90
17774;DHT22;9011;33.236;-97.118;2022-11-25T01:21:53;12.40;99.90
17774;DHT22;9011;33.236;-97.118;2022-11-25T01:24:22;12.30;99.90
17774;DHT22;9011;33.236;-97.118;2022-11-25T01:26:53;12.30;99.90
17774;DHT22;9011;33.236;-97.118;2022-11-25T01:29:22;12.30;99.90
17774;DHT22;9011;33.236;-97.118;2022-11-25T01:31:55;12.30;99.90
17774;DHT22;9011;33.236;-97.118;2022-11-25T01:34:25;12.30;99.90
17774;DHT22;9011;33.236;-97.118;2022-11-25T01:36:57;12.40;99.90
17774;DHT22;9011;33.236;-97.118;2022-11-25T01:39:26;12.30;99.90
17774;DHT22;9011;33.236;-97.118;2022-11-25T01:41:54;12.30;99.90
17774;DHT22;9011;33.236;-97.118;2022-11-25T01:44:26;12.20;99.90
17774;DHT22;9011;33.236;-97.118;2022-11-25T01:47:04;12.20;99.90
17774;DHT22;9011;33.236;-97.118;2022-11-25T01:49:37;12.20;99.90
17774;DHT22;9011;33.236;-97.118;2022-11-25T01:52:12;12.20;99.90
17774;DHT22;9011;33.236;-97.118;2022-11-25T01:54:46;12.30;99.90
17774;DHT22;9011;33.236;-97.118;2022-11-25T01:57:20;12.20;99.90
17774;DHT22;9011;33.236;-97.118;2022-11-25T01:59:52;12.20;99.90
17774;DHT22;9011;33.236;-97.118;2022-11-25T02:02:25;12.20;99.90
17774;DHT22;9011;33.236;-97.118;2022-11-25T02:04:54;12.20;99.90
17774;DHT22;9011;33.236;-97.118;2022-11-25T02:07:28;12.20;99.90
17774;DHT22;9011;33.236;-97.118;2022-11-25T02:09:59;12.10;99.90
17774;DHT22;9011;33.236;-97.118;2022-11-25T02:12:29;12.10;99.90
17774;DHT22;9011;33.236;-97.118;2022-11-25T02:14:58;12.10;99.90
17774;DHT22;9011;33.236;-97.118;2022-11-25T02:17:30;12.00;99.90
17774;DHT22;9011;33.236;-97.118;2022-11-25T02:20:02;12.00;99.90
17774;DHT22;9011;33.236;-97.118;2022-11-25T02:22:43;12.00;99.90
17774;DHT22;9011;33.236;-97.118;2022-11-25T02:25:16;12.00;99.90
17774;DHT22;9011;33.236;-97.118;2022-11-25T02:27:50;12.00;99.90
17774;DHT22;9011;33.236;-97.118;2022-11-25T02:30:19;11.90;99.90
17774;DHT22;9011;33.236;-97.118;2022-11-25T02:32:48;11.90;99.90
17774;DHT22;9011;33.236;-97.118;2022-11-25T02:35:35;12.00;99.90
17774;DHT22;9011;33.236;-97.118;2022-11-25T02:38:07;12.00;99.90
17774;DHT22;9011;33.236;-97.118;2022-11-25T02:40:42;12.00;99.90
17774;DHT22;9011;33.236;-97.118;2022-11-25T02:43:11;12.00;99.90
17774;DHT22;9011;33.236;-97.118;2022-11-25T02:45:49;11.90;99.90
17774;DHT22;9011;33.236;-97.118;2022-11-25T02:48:18;11.90;99.90
17774;DHT22;9011;33.236;-97.118;2022-11-25T02:50:48;12.00;99.90
17774;DHT22;9011;33.236;-97.118;2022-11-25T02:53:16;12.00;99.90
17774;DHT22;9011;33.236;-97.118;2022-11-25T02:55:47;11.90;99.90
17774;DHT22;9011;33.236;-97.118;2022-11-25T02:58:16;11.90;99.90
17774;DHT22;9011;33.236;-97.118;2022-11-25T03:00:44;11.90;99.90
17774;DHT22;9011;33.236;-97.118;2022-11-25T03:03:13;11.90;99.90
17774;DHT22;9011;33.236;-97.118;2022-11-25T03:05:42;12.00;99.90
17774;DHT22;9011;33.236;-97.118;2022-11-25T03:08:11;12.00;99.90
17774;DHT22;9011;33.236;-97.118;2022-11-25T03:10:40;12.00;99.90
17774;DHT22;9011;33.236;-97.118;2022-11-25T03:13:12;12.00;99.90
17774;DHT22;9011;33.236;-97.118;2022-11-25T03:15:40;12.00;99.90
17774;DHT22;9011;33.236;-97.118;2022-11-25T03:18:09;12.00;99.90
17774;DHT22;9011;33.236;-97.118;2022-11-25T03:20:38;11.90;99.90
17774;DHT22;9011;33.236;-97.118;2022-11-25T03:23:06;11.90;99.90
17774;DHT22;9011;33.236;-97.118;2022-11-25T03:25:35;11.90;99.90
17774;DHT22;9011;33.236;-97.118;2022-11-25T03:28:04;11.90;99.90
17774;DHT22;9011;33.236;-97.118;2022-11-25T03:30:34;11.90;99.90
17774;DHT22;9011;33.236;-97.118;2022-11-25T03:33:03;11.90;99.90
17774;DHT22;9011;33.236;-97.118;2022-11-25T03:35:31;11.90;99.90
17774;DHT22;9011;33.236;-97.118;2022-11-25T03:38:00;11.90;99.90
17774;DHT22;9011;33.236;-97.118;2022-11-25T03:40:28;11.80;99.90
17774;DHT22;9011;33.236;-97.118;2022-11-25T03:43:00;11.90;99.90
17774;DHT22;9011;33.236;-97.118;2022-11-25T03:45:29;11.90;99.90
17774;DHT22;9011;33.236;-97.118;2022-11-25T03:48:02;11.90;99.90
17774;DHT22;9011;33.236;-97.118;2022-11-25T03:50:33;11.80;99.90
17774;DHT22;9011;33.236;-97.118;2022-11-25T03:53:05;11.90;99.90
17774;DHT22;9011;33.236;-97.118;2022-11-25T03:55:40;11.80;99.90
17774;DHT22;9011;33.236;-97.118;2022-11-25T03:58:08;11.80;99.90
17774;DHT22;9011;33.236;-97.118;2022-11-25T04:00:40;11.70;99.90
17774;DHT22;9011;33.236;-97.118;2022-11-25T04:03:11;11.70;99.90
17774;DHT22;9011;33.236;-97.118;2022-11-25T04:05:43;11.70;99.90
17774;DHT22;9011;33.236;-97.118;2022-11-25T04:08:12;11.70;99.90
17774;DHT22;9011;33.236;-97.118;2022-11-25T04:10:41;11.70;99.90
17774;DHT22;9011;33.236;-97.118;2022-11-25T04:13:09;11.60;99.90
17774;DHT22;9011;33.236;-97.118;2022-11-25T04:15:37;11.70;99.90
17774;DHT22;9011;33.236;-97.118;2022-11-25T04:18:05;11.60;99.90
17774;DHT22;9011;33.236;-97.118;2022-11-25T04:20:35;11.70;99.90
17774;DHT22;9011;33.236;-97.118;2022-11-25T04:23:04;11.60;99.90
17774;DHT22;9011;33.236;-97.118;2022-11-25T04:25:33;11.70;99.90
17774;DHT22;9011;33.236;-97.118;2022-11-25T04:28:02;11.70;99.90
17774;DHT22;9011;33.236;-97.118;2022-11-25T04:30:31;11.70;99.90
17774;DHT22;9011;33.236;-97.118;2022-11-25T04:33:00;11.60;99.90
17774;DHT22;9011;33.236;-97.118;2022-11-25T04:35:29;11.60;99.90
17774;DHT22;9011;33.236;-97.118;2022-11-25T04:37:59;11.70;99.90
17774;DHT22;9011;33.236;-97.118;2022-11-25T04:40:27;11.60;99.90
17774;DHT22;9011;33.236;-97.118;2022-11-25T04:42:56;11.70;99.90
17774;DHT22;9011;33.236;-97.118;2022-11-25T04:45:25;11.60;99.90
17774;DHT22;9011;33.236;-97.118;2022-11-25T04:47:53;11.60;99.90
17774;DHT22;9011;33.236;-97.118;2022-11-25T04:50:23;11.60;99.90
17774;DHT22;9011;33.236;-97.118;2022-11-25T04:52:51;11.60;99.90
17774;DHT22;9011;33.236;-97.118;2022-11-25T04:55:21;11.60;99.90
17774;DHT22;9011;33.236;-97.118;2022-11-25T04:57:50;11.60;99.90
17774;DHT22;9011;33.236;-97.118;2022-11-25T05:00:19;11.60;99.90
17774;DHT22;9011;33.236;-97.118;2022-11-25T05:02:47;11.60;99.90
17774;DHT22;9011;33.236;-97.118;2022-11-25T05:05:16;11.70;99.90
17774;DHT22;9011;33.236;-97.118;2022-11-25T05:07:45;11.60;99.90
17774;DHT22;9011;33.236;-97.118;2022-11-25T05:10:14;11.60;99.90
17774;DHT22;9011;33.236;-97.118;2022-11-25T05:12:44;11.60;99.90
17774;DHT22;9011;33.236;-97.118;2022-11-25T05:15:12;11.60;99.90
17774;DHT22;9011;33.236;-97.118;2022-11-25T05:17:41;11.60;99.90
17774;DHT22;9011;33.236;-97.118;2022-11-25T05:20:11;11.60;99.90
17774;DHT22;9011;33.236;-97.118;2022-11-25T05:22:39;11.60;99.90
17774;DHT22;9011;33.236;-97.118;2022-11-25T05:25:08;11.60;99.90
17774;DHT22;9011;33.236;-97.118;2022-11-25T05:27:37;11.60;99.90
17774;DHT22;9011;33.236;-97.118;2022-11-25T05:30:09;11.60;99.90
17774;DHT22;9011;33.236;-97.118;2022-11-25T05:32:37;11.60;99.90
17774;DHT22;9011;33.236;-97.118;2022-11-25T05:35:07;11.60;99.90
17774;DHT22;9011;33.236;-97.118;2022-11-25T05:37:35;11.60;99.90
17774;DHT22;9011;33.236;-97.118;2022-11-25T05:40:05;11.50;99.90
17774;DHT22;9011;33.236;-97.118;2022-11-25T05:42:33;11.60;99.90
17774;DHT22;9011;33.236;-97.118;2022-11-25T05:45:03;11.60;99.90
17774;DHT22;9011;33.236;-97.118;2022-11-25T05:47:34;11.60;99.90
17774;DHT22;9011;33.236;-97.118;2022-11-25T05:50:03;11.50;99.90
17774;DHT22;9011;33.236;-97.118;2022-11-25T05:52:32;11.50;99.90
17774;DHT22;9011;33.236;-97.118;2022-11-25T05:55:01;11.50;99.90
17774;DHT22;9011;33.236;-97.118;2022-11-25T05:57:30;11.50;99.90
17774;DHT22;9011;33.236;-97.118;2022-11-25T05:59:59;11.50;99.90
17774;DHT22;9011;33.236;-97.118;2022-11-25T06:02:28;11.60;99.90
17774;DHT22;9011;33.236;-97.118;2022-11-25T06:04:58;11.50;99.90
17774;DHT22;9011;33.236;-97.118;2022-11-25T06:07:26;11.50;99.90
17774;DHT22;9011;33.236;-97.118;2022-11-25T06:09:55;11.50;99.90
17774;DHT22;9011;33.236;-97.118;2022-11-25T06:12:23;11.50;99.90
17774;DHT22;9011;33.236;-97.118;2022-11-25T06:14:52;11.50;99.90
17774;DHT22;9011;33.236;-97.118;2022-11-25T06:17:21;11.50;99.90
17774;DHT22;9011;33.236;-97.118;2022-11-25T06:19:49;11.50;99.90
17774;DHT22;9011;33.236;-97.118;2022-11-25T06:22:19;11.50;99.90
17774;DHT22;9011;33.236;-97.118;2022-11-25T06:24:47;11.50;99.90
17774;DHT22;9011;33.236;-97.118;2022-11-25T06:27:18;11.50;99.90
17774;DHT22;9011;33.236;-97.118;2022-11-25T06:29:47;11.50;99.90
17774;DHT22;9011;33.236;-97.118;2022-11-25T06:32:15;11.50;99.90
17774;DHT22;9011;33.236;-97.118;2022-11-25T06:34:44;11.60;99.90
17774;DHT22;9011;33.236;-97.118;2022-11-25T06:37:12;11.50;99.90
17774;DHT22;9011;33.236;-97.118;2022-11-25T06:39:42;11.60;99.90
17774;DHT22;9011;33.236;-97.118;2022-11-25T06:42:11;11.50;99.90
17774;DHT22;9011;33.236;-97.118;2022-11-25T06:44:39;11.50;99.90
17774;DHT22;9011;33.236;-97.118;2022-11-25T06:47:08;11.50;99.90
17774;DHT22;9011;33.236;-97.118;2022-11-25T06:49:36;11.50;99.90
17774;DHT22;9011;33.236;-97.118;2022-11-25T06:52:05;11.50;99.90
17774;DHT22;9011;33.236;-97.118;2022-11-25T06:54:34;11.50;99.90
17774;DHT22;9011;33.236;-97.118;2022-11-25T06:57:08;11.50;99.90
17774;DHT22;9011;33.236;-97.118;2022-11-25T06:59:37;11.60;99.90
17774;DHT22;9011;33.236;-97.118;2022-11-25T07:02:07;11.50;99.90
17774;DHT22;9011;33.236;-97.118;2022-11-25T07:04:36;11.50;99.90
17774;DHT22;9011;33.236;-97.118;2022-11-25T07:07:05;11.60;99.90
17774;DHT22;9011;33.236;-97.118;2022-11-25T07:09:34;11.60;99.90
17774;DHT22;9011;33.236;-97.118;2022-11-25T07:12:03;11.60;99.90
17774;DHT22;9011;33.236;-97.118;2022-11-25T07:14:34;11.60;99.90
17774;DHT22;9011;33.236;-97.118;2022-11-25T07:17:02;11.50;99.90
17774;DHT22;9011;33.236;-97.118;2022-11-25T07:19:31;11.50;99.90
17774;DHT22;9011;33.236;-97.118;2022-11-25T07:22:01;11.50;99.90
17774;DHT22;9011;33.236;-97.118;2022-11-25T07:24:29;11.60;99.90
17774;DHT22;9011;33.236;-97.118;2022-11-25T07:26:59;11.50;99.90
17774;DHT22;9011;33.236;-97.118;2022-11-25T07:29:27;11.50;99.90
17774;DHT22;9011;33.236;-97.118;2022-11-25T07:31:57;11.50;99.90
17774;DHT22;9011;33.236;-97.118;2022-11-25T07:34:26;11.50;99.90
17774;DHT22;9011;33.236;-97.118;2022-11-25T07:36:55;11.50;99.90
17774;DHT22;9011;33.236;-97.118;2022-11-25T07:39:23;11.50;99.90
17774;DHT22;9011;33.236;-97.118;2022-11-25T07:41:53;11.50;99.90
17774;DHT22;9011;33.236;-97.118;2022-11-25T07:44:22;11.50;99.90
17774;DHT22;9011;33.236;-97.118;2022-11-25T07:46:50;11.50;99.90
17774;DHT22;9011;33.236;-97.118;2022-11-25T07:49:22;11.50;99.90
17774;DHT22;9011;33.236;-97.118;2022-11-25T07:51:56;11.40;99.90
17774;DHT22;9011;33.236;-97.118;2022-11-25T07:54:25;11.50;99.90
17774;DHT22;9011;33.236;-97.118;2022-11-25T07:56:55;11.40;99.90
17774;DHT22;9011;33.236;-97.118;2022-11-25T07:59:24;11.50;99.90
17774;DHT22;9011;33.236;-97.118;2022-11-25T08:01:54;11.50;99.90
17774;DHT22;9011;33.236;-97.118;2022-11-25T08:04:25;11.50;99.90
17774;DHT22;9011;33.236;-97.118;2022-11-25T08:06:53;11.50;99.90
17774;DHT22;9011;33.236;-97.118;2022-11-25T08:09:23;11.50;99.90
17774;DHT22;9011;33.236;-97.118;2022-11-25T08:11:52;11.60;99.90
17774;DHT22;9011;33.236;-97.118;2022-11-25T08:14:20;11.60;99.90
17774;DHT22;9011;33.236;-97.118;2022-11-25T08:16:49;11.60;99.90
17774;DHT22;9011;33.236;-97.118;2022-11-25T08:19:18;11.60;99.90
17774;DHT22;9011;33.236;-97.118;2022-11-25T08:21:48;11.60;99.90
17774;DHT22;9011;33.236;-97.118;2022-11-25T08:24:18;11.60;99.90
17774;DHT22;9011;33.236;-97.118;2022-11-25T08:26:47;11.70;99.90
17774;DHT22;9011;33.236;-97.118;2022-11-25T08:29:17;11.70;99.90
17774;DHT22;9011;33.236;-97.118;2022-11-25T08:31:46;11.60;99.90
17774;DHT22;9011;33.236;-97.118;2022-11-25T08:34:17;11.60;99.90
17774;DHT22;9011;33.236;-97.118;2022-11-25T08:36:48;11.60;99.90
17774;DHT22;9011;33.236;-97.118;2022-11-25T08:39:18;11.60;99.90
17774;DHT22;9011;33.236;-97.118;2022-11-25T08:41:46;11.60;99.90
17774;DHT22;9011;33.236;-97.118;2022-11-25T08:44:15;11.60;99.90
17774;DHT22;9011;33.236;-97.118;2022-11-25T08:46:43;11.70;99.90
17774;DHT22;9011;33.236;-97.118;2022-11-25T08:49:12;11.60;99.90
17774;DHT22;9011;33.236;-97.118;2022-11-25T08:51:42;11.60;99.90
17774;DHT22;9011;33.236;-97.118;2022-11-25T08:54:13;11.60;99.90
17774;DHT22;9011;33.236;-97.118;2022-11-25T08:56:42;11.60;99.90
17774;DHT22;9011;33.236;-97.118;2022-11-25T08:59:10;11.60;99.90
17774;DHT22;9011;33.236;-97.118;2022-11-25T09:01:39;11.60;99.90
17774;DHT22;9011;33.236;-97.118;2022-11-25T09:04:07;11.60;99.90
17774;DHT22;9011;33.236;-97.118;2022-11-25T09:06:37;11.60;99.90
17774;DHT22;9011;33.236;-97.118;2022-11-25T09:09:05;11.60;99.90
17774;DHT22;9011;33.236;-97.118;2022-11-25T09:11:36;11.60;99.90
17774;DHT22;9011;33.236;-97.118;2022-11-25T09:14:04;11.60;99.90
17774;DHT22;9011;33.236;-97.118;2022-11-25T09:16:33;11.60;99.90
17774;DHT22;9011;33.236;-97.118;2022-11-25T09:19:01;11.60;99.90
17774;DHT22;9011;33.236;-97.118;2022-11-25T09:21:30;11.60;99.90
17774;DHT22;9011;33.236;-97.118;2022-11-25T09:23:59;11.50;99.90
17774;DHT22;9011;33.236;-97.118;2022-11-25T09:26:29;11.50;99.90
17774;DHT22;9011;33.236;-97.118;2022-11-25T09:29:02;11.50;99.90
17774;DHT22;9011;33.236;-97.118;2022-11-25T09:31:31;11.50;99.90
17774;DHT22;9011;33.236;-97.118;2022-11-25T09:34:00;11.50;99.90
17774;DHT22;9011;33.236;-97.118;2022-11-25T09:36:29;11.50;99.90
17774;DHT22;9011;33.236;-97.118;2022-11-25T09:38:58;11.50;99.90
17774;DHT22;9011;33.236;-97.118;2022-11-25T09:41:37;11.50;99.90
17774;DHT22;9011;33.236;-97.118;2022-11-25T09:44:33;11.50;99.90
17774;DHT22;9011;33.236;-97.118;2022-11-25T09:47:29;11.50;99.90
17774;DHT22;9011;33.236;-97.118;2022-11-25T09:50:10;11.40;99.90
17774;DHT22;9011;33.236;-97.118;2022-11-25T09:52:46;11.40;99.90
17774;DHT22;9011;33.236;-97.118;2022-11-25T09:55:17;11.40;99.90
17774;DHT22;9011;33.236;-97.118;2022-11-25T09:58:05;11.40;99.90
17774;DHT22;9011;33.236;-97.118;2022-11-25T10:00:44;11.40;99.90
17774;DHT22;9011;33.236;-97.118;2022-11-25T10:03:17;11.40;99.90
17774;DHT22;9011;33.236;-97.118;2022-11-25T10:06:01;11.50;99.90
17774;DHT22;9011;33.236;-97.118;2022-11-25T10:08:34;11.40;99.90
17774;DHT22;9011;33.236;-97.118;2022-11-25T10:11:21;11.50;99.90
17774;DHT22;9011;33.236;-97.118;2022-11-25T10:13:58;11.40;99.90
17774;DHT22;9011;33.236;-97.118;2022-11-25T10:16:34;11.40;99.90
17774;DHT22;9011;33.236;-97.118;2022-11-25T10:19:14;11.40;99.90
17774;DHT22;9011;33.236;-97.118;2022-11-25T10:21:45;11.40;99.90
17774;DHT22;9011;33.236;-97.118;2022-11-25T10:24:15;11.30;99.90
17774;DHT22;9011;33.236;-97.118;2022-11-25T10:26:47;11.40;99.90
17774;DHT22;9011;33.236;-97.118;2022-11-25T10:29:24;11.30;99.90
17774;DHT22;9011;33.236;-97.118;2022-11-25T10:32:08;11.30;99.90
17774;DHT22;9011;33.236;-97.118;2022-11-25T10:34:43;11.30;99.90
17774;DHT22;9011;33.236;-97.118;2022-11-25T10:37:18;11.30;99.90
17774;DHT22;9011;33.236;-97.118;2022-11-25T10:39:50;11.30;99.90
17774;DHT22;9011;33.236;-97.118;2022-11-25T10:42:21;11.30;99.90
17774;DHT22;9011;33.236;-97.118;2022-11-25T10:44:50;11.30;99.90
17774;DHT22;9011;33.236;-97.118;2022-11-25T10:47:45;11.30;99.90
17774;DHT22;9011;33.236;-97.118;2022-11-25T10:50:23;11.20;99.90
17774;DHT22;9011;33.236;-97.118;2022-11-25T10:52:57;11.20;99.90
17774;DHT22;9011;33.236;-97.118;2022-11-25T10:55:31;11.10;99.90
17774;DHT22;9011;33.236;-97.118;2022-11-25T10:58:21;11.10;99.90
17774;DHT22;9011;33.236;-97.118;2022-11-25T11:01:05;11.00;99.90
17774;DHT22;9011;33.236;-97.118;2022-11-25T11:03:49;11.00;99.90
17774;DHT22;9011;33.236;-97.118;2022-11-25T11:06:34;11.00;99.90
17774;DHT22;9011;33.236;-97.118;2022-11-25T11:09:03;10.90;99.90
17774;DHT22;9011;33.236;-97.118;2022-11-25T11:11:32;11.00;99.90
17774;DHT22;9011;33.236;-97.118;2022-11-25T11:14:19;10.90;99.90
17774;DHT22;9011;33.236;-97.118;2022-11-25T11:16:52;10.80;99.90
17774;DHT22;9011;33.236;-97.118;2022-11-25T11:19:24;10.80;99.90
17774;DHT22;9011;33.236;-97.118;2022-11-25T11:21:54;10.80;99.90
17774;DHT22;9011;33.236;-97.118;2022-11-25T11:24:28;10.80;99.90
17774;DHT22;9011;33.236;-97.118;2022-11-25T11:27:06;10.80;99.90
17774;DHT22;9011;33.236;-97.118;2022-11-25T11:29:34;10.70;99.90
17774;DHT22;9011;33.236;-97.118;2022-11-25T11:32:04;10.60;99.90
17774;DHT22;9011;33.236;-97.118;2022-11-25T11:34:46;10.60;99.90
17774;DHT22;9011;33.236;-97.118;2022-11-25T11:37:36;10.50;99.90
17774;DHT22;9011;33.236;-97.118;2022-11-25T11:40:30;10.50;99.90
17774;DHT22;9011;33.236;-97.118;2022-11-25T11:43:08;10.50;99.90
17774;DHT22;9011;33.236;-97.118;2022-11-25T11:45:53;10.50;99.90
17774;DHT22;9011;33.236;-97.118;2022-11-25T11:48:26;10.40;99.90
17774;DHT22;9011;33.236;-97.118;2022-11-25T11:51:07;10.50;99.90
17774;DHT22;9011;33.236;-97.118;2022-11-25T11:53:43;10.40;99.90
17774;DHT22;9011;33.236;-97.118;2022-11-25T11:56:18;10.40;99.90
17774;DHT22;9011;33.236;-97.118;2022-11-25T11:58:59;10.40;99.90
17774;DHT22;9011;33.236;-97.118;2022-11-25T12:01:37;10.50;99.90
17774;DHT22;9011;33.236;-97.118;2022-11-25T12:04:16;10.40;99.90
17774;DHT22;9011;33.236;-97.118;2022-11-25T12:06:56;10.40;99.90
17774;DHT22;9011;33.236;-97.118;2022-11-25T12:09:28;10.40;99.90
17774;DHT22;9011;33.236;-97.118;2022-11-25T12:12:03;10.40;99.90
17774;DHT22;9011;33.236;-97.118;2022-11-25T12:14:38;10.40;99.90
17774;DHT22;9011;33.236;-97.118;2022-11-25T12:17:14;10.30;99.90
17774;DHT22;9011;33.236;-97.118;2022-11-25T12:19:51;10.30;99.90
17774;DHT22;9011;33.236;-97.118;2022-11-25T12:22:26;10.30;99.90
17774;DHT22;9011;33.236;-97.118;2022-11-25T12:25:03;10.20;99.90
17774;DHT22;9011;33.236;-97.118;2022-11-25T12:27:36;10.20;99.90
17774;DHT22;9011;33.236;-97.118;2022-11-25T12:30:08;10.10;99.90
17774;DHT22;9011;33.236;-97.118;2022-11-25T12:32:52;10.10;99.90
17774;DHT22;9011;33.236;-97.118;2022-11-25T12:35:35;10.00;99.90
17774;DHT22;9011;33.236;-97.118;2022-11-25T12:38:18;10.00;99.90
17774;DHT22;9011;33.236;-97.118;2022-11-25T12:40:55;10.10;99.90
17774;DHT22;9011;33.236;-97.118;2022-11-25T12:43:34;10.10;99.90
17774;DHT22;9011;33.236;-97.118;2022-11-25T12:46:14;10.10;99.90
17774;DHT22;9011;33.236;-97.118;2022-11-25T12:48:47;10.00;99.90
17774;DHT22;9011;33.236;-97.118;2022-11-25T12:54:32;9.90;99.90
17774;DHT22;9011;33.236;-97.118;2022-11-25T12:57:38;9.80;99.90
17774;DHT22;9011;33.236;-97.118;2022-11-25T13:00:13;9.90;99.90
17774;DHT22;9011;33.236;-97.118;2022-11-25T13:08:53;9.90;99.90
17774;DHT22;9011;33.236;-97.118;2022-11-25T13:12:03;9.80;99.90
17774;DHT22;9011;33.236;-97.118;2022-11-25T13:14:57;9.80;99.90
17774;DHT22;9011;33.236;-97.118;2022-11-25T13:17:28;9.90;99.90
17774;DHT22;9011;33.236;-97.118;2022-11-25T13:20:23;9.80;99.90
17774;DHT22;9011;33.236;-97.118;2022-11-25T13:23:19;9.80;99.90
17774;DHT22;9011;33.236;-97.118;2022-11-25T13:25:51;9.90;99.90
17774;DHT22;9011;33.236;-97.118;2022-11-25T13:28:32;9.90;99.90
17774;DHT22;9011;33.236;-97.118;2022-11-25T13:31:20;9.80;99.90
17774;DHT22;9011;33.236;-97.118;2022-11-25T13:34:06;9.80;99.90
17774;DHT22;9011;33.236;-97.118;2022-11-25T13:36:45;9.90;99.90
17774;DHT22;9011;33.236;-97.118;2022-11-25T13:39:15;9.80;99.90
17774;DHT22;9011;33.236;-97.118;2022-11-25T13:41:59;9.80;99.90
17774;DHT22;9011;33.236;-97.118;2022-11-25T13:44:31;9.80;99.90
17774;DHT22;9011;33.236;-97.118;2022-11-25T13:47:23;9.80;99.90
17774;DHT22;9011;33.236;-97.118;2022-11-25T13:49:53;9.80;99.90
17774;DHT22;9011;33.236;-97.118;2022-11-25T13:52:30;9.80;99.90
17774;DHT22;9011;33.236;-97.118;2022-11-25T13:55:01;9.70;99.90
17774;DHT22;9011;33.236;-97.118;2022-11-25T13:57:34;9.70;99.90
17774;DHT22;9011;33.236;-97.118;2022-11-25T14:00:40;9.70;99.90
17774;DHT22;9011;33.236;-97.118;2022-11-25T14:06:06;9.80;99.90
17774;DHT22;9011;33.236;-97.118;2022-11-25T14:08:40;9.90;99.90
17774;DHT22;9011;33.236;-97.118;2022-11-25T14:11:32;9.90;99.90
17774;DHT22;9011;33.236;-97.118;2022-11-25T14:14:26;10.00;99.90
17774;DHT22;9011;33.236;-97.118;2022-11-25T14:17:13;10.00;99.90
17774;DHT22;9011;33.236;-97.118;2022-11-25T14:23:02;10.00;99.90
17774;DHT22;9011;33.236;-97.118;2022-11-25T14:25:45;10.00;99.90
17774;DHT22;9011;33.236;-97.118;2022-11-25T14:28:24;10.00;99.90
17774;DHT22;9011;33.236;-97.118;2022-11-25T14:30:57;10.10;99.90
17774;DHT22;9011;33.236;-97.118;2022-11-25T14:33:32;10.10;99.90
17774;DHT22;9011;33.236;-97.118;2022-11-25T14:36:05;10.00;99.90
17774;DHT22;9011;33.236;-97.118;2022-11-25T14:38:41;10.00;99.90
17774;DHT22;9011;33.236;-97.118;2022-11-25T14:41:16;10.00;99.90
17774;DHT22;9011;33.236;-97.118;2022-11-25T14:43:49;9.90;99.90
17774;DHT22;9011;33.236;-97.118;2022-11-25T14:46:21;9.90;99.90
17774;DHT22;9011;33.236;-97.118;2022-11-25T14:48:57;10.00;99.90
17774;DHT22;9011;33.236;-97.118;2022-11-25T14:51:27;9.90;99.90
17774;DHT22;9011;33.236;-97.118;2022-11-25T14:54:00;9.90;99.90
17774;DHT22;9011;33.236;-97.118;2022-11-25T14:56:33;10.00;99.90
17774;DHT22;9011;33.236;-97.118;2022-11-25T14:59:02;10.00;99.90
17774;DHT22;9011;33.236;-97.118;2022-11-25T15:01:32;10.10;99.90
17774;DHT22;9011;33.236;-97.118;2022-11-25T15:04:05;10.10;99.90
17774;DHT22;9011;33.236;-97.118;2022-11-25T15:06:34;10.20;99.90
17774;DHT22;9011;33.236;-97.118;2022-11-25T15:09:21;10.20;99.90
17774;DHT22;9011;33.236;-97.118;2022-11-25T15:11:52;10.10;99.90
17774;DHT22;9011;33.236;-97.118;2022-11-25T15:14:25;10.20;99.90
17774;DHT22;9011;33.236;-97.118;2022-11-25T15:16:55;10.20;99.90
17774;DHT22;9011;33.236;-97.118;2022-11-25T15:19:32;10.30;99.90
17774;DHT22;9011;33.236;-97.118;2022-11-25T15:22:02;10.30;99.90
17774;DHT22;9011;33.236;-97.118;2022-11-25T15:24:39;10.30;99.90
17774;DHT22;9011;33.236;-97.118;2022-11-25T15:27:14;10.20;99.90
17774;DHT22;9011;33.236;-97.118;2022-11-25T15:29:44;10.30;99.90
17774;DHT22;9011;33.236;-97.118;2022-11-25T15:32:16;10.30;99.90
17774;DHT22;9011;33.236;-97.118;2022-11-25T15:34:47;10.40;99.90
17774;DHT22;9011;33.236;-97.118;2022-11-25T15:37:16;10.30;99.90
17774;DHT22;9011;33.236;-97.118;2022-11-25T15:39:45;10.40;99.90
17774;DHT22;9011;33.236;-97.118;2022-11-25T15:42:16;10.40;99.90
17774;DHT22;9011;33.236;-97.118;2022-11-25T15:44:49;10.50;99.90
17774;DHT22;9011;33.236;-97.118;2022-11-25T15:47:23;10.40;99.90
17774;DHT22;9011;33.236;-97.118;2022-11-25T15:49:59;10.50;99.90
17774;DHT22;9011;33.236;-97.118;2022-11-25T15:52:29;10.60;99.90
17774;DHT22;9011;33.236;-97.118;2022-11-25T15:55:02;10.60;99.90
17774;DHT22;9011;33.236;-97.118;2022-11-25T15:57:34;10.60;99.90
17774;DHT22;9011;33.236;-97.118;2022-11-25T16:00:14;10.60;99.90
17774;DHT22;9011;33.236;-97.118;2022-11-25T16:02:51;10.70;99.90
17774;DHT22;9011;33.236;-97.118;2022-11-25T16:05:33;10.70;99.90
17774;DHT22;9011;33.236;-97.118;2022-11-25T16:08:22;10.70;99.90